Time;durP1;ratioP1;P1;durP2;ratioP2;P2;SDS_P1;SDS_P2;PMS_P1;PMS_P2;Temp;Humidity;BMP_temperature;BMP_pressure;BME280_temperature;BME280_humidity;BME280_pressure;Samples;Min_cycle;Max_cycle;Signal;HPM_P1;HPM_P2
2022/03/05 00:02:07;;;;;;;14.78;9.93;;;7.90;99.90;;;;;;1947941;72;22287;-82
2022/03/05 00:07:57;;;;;;;14.43;9.98;;;7.70;99.90;;;;;;1946828;72;22624;-83
2022/03/05 00:11:07;;;;;;;15.13;11.10;;;7.70;99.90;;;;;;1944504;73;21121;-86
2022/03/05 00:16:42;;;;;;;15.83;10.53;;;7.70;99.90;;;;;;1930326;72;22159;-85
2022/03/05 00:22:32;;;;;;;14.68;9.80;;;7.60;99.90;;;;;;1952309;72;22545;-85
2022/03/05 00:28:26;;;;;;;15.50;12.00;;;7.30;99.90;;;;;;1924469;72;28476;-85
2022/03/05 00:31:37;;;;;;;13.65;9.73;;;7.50;99.90;;;;;;1909576;74;21050;-84
2022/03/05 00:34:29;;;;;;;15.03;10.38;;;7.40;99.90;;;;;;1884500;75;21110;-84
2022/03/05 00:37:20;;;;;;;16.40;10.40;;;7.30;99.90;;;;;;1882982;75;21091;-84
2022/03/05 00:40:12;;;;;;;12.98;8.85;;;7.30;99.90;;;;;;1899996;75;21133;-84
2022/03/05 00:43:04;;;;;;;12.70;8.73;;;7.30;99.90;;;;;;1878391;75;21570;-84
2022/03/05 00:45:55;;;;;;;16.77;9.40;;;7.10;99.90;;;;;;1887468;75;21546;-84
2022/03/05 00:48:47;;;;;;;14.30;8.43;;;7.00;99.90;;;;;;1876956;75;21566;-83
2022/03/05 00:51:45;;;;;;;13.35;8.65;;;6.90;99.90;;;;;;1888288;75;21092;-83
2022/03/05 00:57:16;;;;;;;12.88;8.98;;;6.80;99.90;;;;;;1963174;72;22260;-83
2022/03/05 01:00:25;;;;;;;14.30;9.78;;;6.60;99.90;;;;;;1927383;74;21050;-85
2022/03/05 01:03:17;;;;;;;12.07;9.08;;;6.50;99.90;;;;;;1916036;74;21099;-84
2022/03/05 01:06:08;;;;;;;13.50;9.93;;;6.50;99.90;;;;;;1918303;74;21184;-84
2022/03/05 01:09:00;;;;;;;13.30;9.53;;;6.50;99.90;;;;;;1925898;74;21165;-84
2022/03/05 01:11:51;;;;;;;16.10;9.33;;;6.50;99.90;;;;;;1909765;74;21044;-83
2022/03/05 01:17:22;;;;;;;13.28;8.50;;;6.20;99.90;;;;;;1956081;72;22305;-82
2022/03/05 01:20:32;;;;;;;13.22;9.05;;;6.20;99.90;;;;;;1930459;73;21103;-84
2022/03/05 01:26:04;;;;;;;12.73;8.68;;;6.30;99.90;;;;;;1943740;72;22210;-85
2022/03/05 01:29:14;;;;;;;12.00;8.18;;;6.30;99.90;;;;;;1927448;73;21082;-86
2022/03/05 01:32:07;;;;;;;12.65;8.48;;;6.30;99.90;;;;;;1917657;73;21156;-85
2022/03/05 01:34:58;;;;;;;10.72;8.10;;;6.30;99.90;;;;;;1922982;73;21687;-85
2022/03/05 01:37:50;;;;;;;11.18;8.15;;;6.30;99.90;;;;;;1917640;73;21121;-84
2022/03/05 01:43:21;;;;;;;13.90;8.25;;;6.30;99.90;;;;;;1937837;72;22239;-82
2022/03/05 01:46:34;;;;;;;11.65;8.50;;;6.30;99.90;;;;;;1901813;75;21077;-83
2022/03/05 01:52:09;;;;;;;15.98;8.60;;;6.20;99.90;;;;;;1937723;72;22134;-85
2022/03/05 01:55:19;;;;;;;13.75;8.05;;;6.00;99.90;;;;;;1896329;75;21088;-85
2022/03/05 01:58:12;;;;;;;15.85;8.35;;;5.90;99.90;;;;;;1886579;75;21099;-84
2022/03/05 02:01:04;;;;;;;15.83;8.13;;;5.80;99.90;;;;;;1898998;74;21023;-84
2022/03/05 02:06:37;;;;;;;12.35;8.43;;;5.70;99.90;;;;;;1933446;72;22790;-85
2022/03/05 02:12:29;;;;;;;13.10;8.28;;;5.70;99.90;;;;;;1937126;72;22126;-84
2022/03/05 02:15:39;;;;;;;12.45;8.45;;;5.70;99.90;;;;;;1902107;75;21079;-84
2022/03/05 02:18:30;;;;;;;13.25;7.65;;;5.60;99.90;;;;;;1905335;75;21099;-83
2022/03/05 02:24:08;;;;;;;12.07;7.50;;;5.50;99.90;;;;;;1960919;72;22151;-85
2022/03/05 02:27:20;;;;;;;9.40;7.10;;;5.60;99.90;;;;;;1900850;74;21111;-85
2022/03/05 02:30:13;;;;;;;9.63;6.83;;;5.60;99.90;;;;;;1937949;73;21171;-85
2022/03/05 02:33:05;;;;;;;9.48;7.17;;;5.50;99.90;;;;;;1921577;73;21115;-84
2022/03/05 02:35:57;;;;;;;11.20;7.28;;;5.50;99.90;;;;;;1939174;73;21058;-85
2022/03/05 02:38:48;;;;;;;10.35;6.80;;;5.50;99.90;;;;;;1905431;74;21050;-84
2022/03/05 02:41:40;;;;;;;8.05;6.28;;;5.60;99.90;;;;;;1916360;74;21503;-84
2022/03/05 02:44:34;;;;;;;10.18;6.97;;;5.60;99.90;;;;;;1903711;74;21541;-84
2022/03/05 02:47:27;;;;;;;9.58;6.47;;;5.60;99.90;;;;;;1924699;74;21116;-85
2022/03/05 02:53:02;;;;;;;8.75;6.08;;;5.60;99.90;;;;;;1946048;72;22715;-85
2022/03/05 02:56:12;;;;;;;8.83;6.47;;;5.60;99.90;;;;;;1892292;75;21055;-84
2022/03/05 02:59:04;;;;;;;8.40;6.28;;;5.50;99.90;;;;;;1874621;75;21117;-83
2022/03/05 03:01:55;;;;;;;12.40;7.15;;;5.50;99.90;;;;;;1879405;75;21808;-83
2022/03/05 03:07:26;;;;;;;8.68;6.28;;;5.50;99.90;;;;;;1951627;72;22131;-85
2022/03/05 03:10:36;;;;;;;9.60;6.42;;;5.50;99.90;;;;;;1879000;75;21096;-84
2022/03/05 03:13:28;;;;;;;8.35;5.83;;;5.50;99.90;;;;;;1881529;75;21102;-84
2022/03/05 03:16:19;;;;;;;8.98;5.83;;;5.50;99.90;;;;;;1891649;75;21114;-84
2022/03/05 03:21:49;;;;;;;9.60;5.95;;;5.50;99.90;;;;;;1940776;72;22264;-85
2022/03/05 03:27:42;;;;;;;9.40;6.28;;;5.40;99.90;;;;;;1937433;72;22154;-85
2022/03/05 03:30:53;;;;;;;10.30;6.37;;;5.20;99.90;;;;;;1902411;75;21117;-83
2022/03/05 03:36:24;;;;;;;7.35;5.50;;;5.00;99.90;;;;;;1945031;72;22115;-84
2022/03/05 03:39:34;;;;;;;9.25;6.25;;;4.90;99.90;;;;;;1894985;75;21149;-84
2022/03/05 03:42:26;;;;;;;9.95;6.00;;;4.80;99.90;;;;;;1896791;75;21157;-84
2022/03/05 03:45:19;;;;;;;9.93;6.70;;;4.70;99.90;;;;;;1905178;75;21052;-84
2022/03/05 03:48:11;;;;;;;9.40;6.25;;;4.70;99.90;;;;;;1894636;75;21059;-84
2022/03/05 03:51:02;;;;;;;8.95;6.22;;;4.60;99.90;;;;;;1878917;75;21107;-84
2022/03/05 03:53:54;;;;;;;10.25;6.40;;;4.60;99.90;;;;;;1874773;75;21188;-84
2022/03/05 03:59:25;;;;;;;8.75;6.03;;;4.70;99.90;;;;;;1933656;72;22265;-84
2022/03/05 04:02:35;;;;;;;10.32;6.50;;;4.70;99.90;;;;;;1881088;75;21102;-85
2022/03/05 04:05:27;;;;;;;9.43;6.67;;;4.70;99.90;;;;;;1900553;75;21047;-84
2022/03/05 04:16:52;;;;;;;8.88;5.72;;;4.70;99.90;;;;;;1933016;72;20264;-85
2022/03/05 04:20:03;;;;;;;8.83;5.92;;;4.60;99.90;;;;;;1896243;75;21142;-85
2022/03/05 04:22:54;;;;;;;9.03;6.42;;;4.50;99.90;;;;;;1889382;75;21104;-85
2022/03/05 04:25:45;;;;;;;8.50;6.35;;;4.60;99.90;;;;;;1907441;75;21186;-85
2022/03/05 04:28:38;;;;;;;9.48;6.92;;;4.50;99.90;;;;;;1887370;75;21157;-86
2022/03/05 04:31:30;;;;;;;9.70;6.12;;;4.60;99.90;;;;;;1894650;75;21051;-85
2022/03/05 04:37:04;;;;;;;9.15;6.35;;;4.40;99.90;;;;;;1962174;72;22179;-85
2022/03/05 04:40:15;;;;;;;11.70;6.33;;;4.30;99.90;;;;;;1939573;73;21094;-84
2022/03/05 04:43:07;;;;;;;9.28;6.75;;;4.10;99.90;;;;;;1907122;74;21479;-83
2022/03/05 04:45:58;;;;;;;9.68;6.25;;;3.90;99.90;;;;;;1905278;74;21084;-83
2022/03/05 04:48:50;;;;;;;8.78;6.35;;;3.90;99.90;;;;;;1926082;74;21048;-84
2022/03/05 04:54:24;;;;;;;8.65;5.95;;;4.10;99.90;;;;;;1929830;72;22267;-84
2022/03/05 04:57:58;;;;;;;8.15;5.85;;;4.10;99.90;;;;;;1900426;75;21225;-84
2022/03/05 05:00:49;;;;;;;9.10;6.08;;;4.20;99.90;;;;;;1892581;75;21068;-83
2022/03/05 05:03:41;;;;;;;9.65;5.83;;;4.20;99.90;;;;;;1901092;74;21060;-84
2022/03/05 05:06:32;;;;;;;7.80;5.47;;;4.10;99.90;;;;;;1870472;75;21086;-83
2022/03/05 05:09:25;;;;;;;8.88;5.62;;;4.10;99.90;;;;;;1874585;75;21183;-83
2022/03/05 05:12:18;;;;;;;8.55;6.20;;;4.10;99.90;;;;;;1902364;74;21055;-83
2022/03/05 05:17:51;;;;;;;10.25;6.12;;;3.90;99.90;;;;;;1947852;72;22158;-84
2022/03/05 05:23:41;;;;;;;8.25;5.97;;;3.80;99.90;;;;;;1943859;72;22190;-84
2022/03/05 05:26:51;;;;;;;7.40;5.65;;;3.70;99.90;;;;;;1933958;73;21076;-85
2022/03/05 05:29:42;;;;;;;9.68;6.30;;;3.60;99.90;;;;;;1926965;73;21090;-84
2022/03/05 05:32:34;;;;;;;8.85;6.17;;;3.60;99.90;;;;;;1917798;73;21092;-86
2022/03/05 05:38:04;;;;;;;9.00;6.78;;;3.60;99.90;;;;;;1953330;72;22360;-84
2022/03/05 05:41:14;;;;;;;11.57;6.90;;;3.70;99.90;;;;;;1880926;75;21110;-84
2022/03/05 05:46:44;;;;;;;10.18;7.42;;;3.70;99.90;;;;;;1931946;72;22248;-85
2022/03/05 05:49:53;;;;;;;10.78;6.67;;;3.60;99.90;;;;;;1912620;74;21119;-84
2022/03/05 05:52:45;;;;;;;9.13;5.80;;;3.60;99.90;;;;;;1899902;75;21130;-84
2022/03/05 05:55:36;;;;;;;8.65;5.80;;;3.50;99.90;;;;;;1893448;74;21139;-84
2022/03/05 05:58:28;;;;;;;8.18;5.62;;;3.50;99.90;;;;;;1905152;74;21156;-86
2022/03/05 06:01:19;;;;;;;8.45;5.87;;;3.50;99.90;;;;;;1888771;75;21107;-84
2022/03/05 06:04:11;;;;;;;9.35;6.20;;;3.40;99.90;;;;;;1905032;74;21080;-85
2022/03/05 06:07:05;;;;;;;8.93;6.28;;;3.30;99.90;;;;;;1903655;74;21043;-84
2022/03/05 06:09:56;;;;;;;8.38;5.90;;;3.30;99.90;;;;;;1897246;74;21113;-84
2022/03/05 06:12:49;;;;;;;10.53;6.37;;;3.30;99.90;;;;;;1887024;75;21152;-85
2022/03/05 06:15:41;;;;;;;11.15;6.72;;;3.30;99.90;;;;;;1888989;75;21139;-86
2022/03/05 06:18:32;;;;;;;9.03;6.70;;;3.40;99.90;;;;;;1902018;74;21111;-86
2022/03/05 06:21:24;;;;;;;9.13;6.37;;;3.40;99.90;;;;;;1902478;74;21048;-84
2022/03/05 06:26:54;;;;;;;9.18;6.08;;;3.60;99.90;;;;;;1936664;72;22208;-84
2022/03/05 06:32:47;;;;;;;11.48;7.08;;;3.60;99.90;;;;;;1952734;72;22585;-84
2022/03/05 06:38:37;;;;;;;11.85;7.05;;;3.60;99.90;;;;;;1931989;72;22146;-85
2022/03/05 06:41:46;;;;;;;10.68;7.62;;;3.60;99.90;;;;;;1900165;75;21172;-85
2022/03/05 06:44:38;;;;;;;14.70;8.85;;;3.60;99.90;;;;;;1891314;75;21601;-84
2022/03/05 06:47:31;;;;;;;16.87;9.73;;;3.70;99.90;;;;;;1895680;75;21125;-85
2022/03/05 06:53:02;;;;;;;14.15;8.95;;;3.70;99.90;;;;;;1942645;72;22134;-85
2022/03/05 06:56:13;;;;;;;13.20;8.95;;;3.70;99.90;;;;;;1917118;75;21046;-84
2022/03/05 07:01:44;;;;;;;13.70;9.13;;;3.80;99.90;;;;;;1961434;72;22217;-85
2022/03/05 07:07:32;;;;;;;14.80;8.53;;;3.80;99.90;;;;;;1938804;72;22266;-85
2022/03/05 07:10:46;;;;;;;13.18;8.93;;;3.80;99.90;;;;;;1887499;75;21111;-79
2022/03/05 07:16:18;;;;;;;13.30;8.28;;;3.90;99.90;;;;;;1926220;72;22141;-80
2022/03/05 07:22:09;;;;;;;11.03;7.60;;;4.10;99.90;;;;;;1952300;72;22178;-81
2022/03/05 07:25:19;;;;;;;12.98;7.97;;;4.10;99.90;;;;;;1922229;73;21630;-79
2022/03/05 07:28:12;;;;;;;13.32;8.95;;;4.20;99.90;;;;;;1910194;73;21040;-79
2022/03/05 07:31:04;;;;;;;14.53;9.98;;;4.20;99.90;;;;;;1914467;74;21553;-80
2022/03/05 07:36:43;;;;;;;16.00;10.50;;;4.30;99.90;;;;;;1930536;72;22169;-79
2022/03/05 07:39:54;;;;;;;14.05;9.20;;;4.30;99.90;;;;;;1906464;75;21051;-80
2022/03/05 07:42:46;;;;;;;15.00;9.43;;;4.40;99.90;;;;;;1891563;75;21171;-79
2022/03/05 07:45:40;;;;;;;13.35;9.35;;;4.40;99.90;;;;;;1896974;75;21054;-81
2022/03/05 07:48:32;;;;;;;13.68;9.03;;;4.40;99.90;;;;;;1884689;75;21063;-80
2022/03/05 07:51:25;;;;;;;14.38;9.83;;;4.50;99.90;;;;;;1876397;75;21156;-80
2022/03/05 07:57:04;;;;;;;15.05;8.88;;;4.60;99.90;;;;;;1957585;72;22135;-80
2022/03/05 08:00:18;;;;;;;13.90;9.53;;;4.60;99.90;;;;;;1945239;72;21148;-79
2022/03/05 08:03:11;;;;;;;16.07;9.35;;;4.70;99.90;;;;;;1933088;73;21117;-79
2022/03/05 08:06:03;;;;;;;13.20;9.25;;;4.80;99.90;;;;;;1935604;73;21125;-79
2022/03/05 08:08:57;;;;;;;11.57;8.53;;;4.80;99.90;;;;;;1917921;73;21522;-79
2022/03/05 08:11:47;;;;;;;12.43;8.60;;;4.90;99.90;;;;;;1926363;73;21090;-79
2022/03/05 08:14:41;;;;;;;11.03;7.92;;;4.90;99.90;;;;;;1921067;73;21158;-79
2022/03/05 08:17:33;;;;;;;13.70;9.00;;;5.00;99.90;;;;;;1921817;73;21062;-79
2022/03/05 08:20:26;;;;;;;12.63;8.20;;;5.10;99.90;;;;;;1939886;73;21503;-80
2022/03/05 08:23:19;;;;;;;12.13;8.33;;;5.20;99.90;;;;;;1944403;73;21063;-79
2022/03/05 08:26:13;;;;;;;11.38;7.85;;;5.30;99.90;;;;;;1927328;73;21106;-79
2022/03/05 08:31:48;;;;;;;13.80;8.18;;;5.40;99.90;;;;;;1942297;72;22154;-79
2022/03/05 08:34:58;;;;;;;12.05;7.83;;;5.50;99.90;;;;;;1924166;73;21160;-80
2022/03/05 08:37:52;;;;;;;11.70;8.00;;;5.60;99.90;;;;;;1918401;73;21196;-80
2022/03/05 08:43:24;;;;;;;12.73;8.38;;;5.60;99.90;;;;;;1930343;72;22189;-80
2022/03/05 08:49:15;;;;;;;15.90;8.85;;;5.80;99.90;;;;;;1949860;72;22611;-79
2022/03/05 08:52:25;;;;;;;11.65;7.75;;;5.90;99.90;;;;;;1933057;73;21135;-80
2022/03/05 08:57:59;;;;;;;11.75;8.23;;;6.00;99.90;;;;;;1951953;72;22122;-80
2022/03/05 09:01:09;;;;;;;14.15;8.80;;;6.10;99.90;;;;;;1937969;73;21055;-80
2022/03/05 09:06:41;;;;;;;13.72;7.78;;;6.20;99.90;;;;;;1944606;72;22116;-80
2022/03/05 09:12:30;;;;;;;13.43;8.03;;;6.30;99.90;;;;;;1936885;72;22181;-80
2022/03/05 09:15:40;;;;;;;13.18;8.23;;;6.40;99.90;;;;;;1911486;73;21028;-80
2022/03/05 09:18:32;;;;;;;11.60;8.03;;;6.30;99.90;;;;;;1917540;75;21146;-80
2022/03/05 09:21:24;;;;;;;10.10;7.55;;;6.40;99.90;;;;;;1916232;75;21170;-80
2022/03/05 09:26:57;;;;;;;11.45;8.30;;;6.60;99.90;;;;;;1955087;72;22190;-80
2022/03/05 09:30:10;;;;;;;12.20;8.00;;;6.60;99.90;;;;;;1918904;74;21114;-80
2022/03/05 09:35:41;;;;;;;12.58;7.75;;;6.80;99.90;;;;;;1935303;72;22301;-80
2022/03/05 09:38:51;;;;;;;13.40;8.63;;;6.90;99.90;;;;;;1894725;75;21157;-80
2022/03/05 09:41:42;;;;;;;11.25;8.03;;;7.00;99.90;;;;;;1906683;73;21205;-79
2022/03/05 09:47:15;;;;;;;11.53;8.10;;;7.10;99.90;;;;;;1943141;72;22130;-80
2022/03/05 09:50:29;;;;;;;12.70;8.55;;;7.10;99.90;;;;;;1900642;75;21593;-81
2022/03/05 09:53:21;;;;;;;10.10;7.80;;;7.20;99.90;;;;;;1894383;75;21142;-80
2022/03/05 09:56:14;;;;;;;11.30;7.53;;;7.30;99.90;;;;;;1911025;73;21460;-80
2022/03/05 10:01:48;;;;;;;10.82;7.60;;;7.50;99.90;;;;;;1944966;72;22700;-79
2022/03/05 10:08:12;;;;;;;14.30;9.40;;;7.60;99.90;;;;;;1931746;72;22311;-81
2022/03/05 10:11:25;;;;;;;10.45;8.15;;;7.70;99.90;;;;;;1900076;74;21370;-81
2022/03/05 10:14:18;;;;;;;13.22;8.53;;;7.70;99.90;;;;;;1883652;75;21048;-81
2022/03/05 10:17:13;;;;;;;14.30;9.03;;;7.80;99.50;;;;;;1905073;75;21091;-81
2022/03/05 10:20:08;;;;;;;13.38;8.28;;;7.90;98.80;;;;;;1904432;75;21087;-80
2022/03/05 10:23:06;;;;;;;13.40;8.60;;;8.00;97.70;;;;;;1890489;75;21098;-80
2022/03/05 10:26:08;;;;;;;9.58;7.40;;;8.00;98.50;;;;;;1856602;75;21184;-80
2022/03/05 10:29:03;;;;;;;11.83;7.53;;;8.00;98.30;;;;;;1866222;76;21113;-82
2022/03/05 10:32:01;;;;;;;10.28;7.50;;;8.20;95.60;;;;;;1849783;77;21122;-80
2022/03/05 10:34:56;;;;;;;11.65;7.53;;;8.20;95.70;;;;;;1832353;76;21067;-80
2022/03/05 10:37:54;;;;;;;12.03;7.83;;;8.20;95.80;;;;;;1838468;77;21188;-82
2022/03/05 10:40:55;;;;;;;13.00;8.95;;;8.20;94.70;;;;;;1839235;77;21640;-81
2022/03/05 10:43:48;;;;;;;10.82;7.65;;;8.30;94.50;;;;;;1884903;75;21150;-81
2022/03/05 10:46:41;;;;;;;10.08;7.37;;;8.30;95.00;;;;;;1884503;75;21669;-81
2022/03/05 10:49:36;;;;;;;10.40;7.08;;;8.30;94.70;;;;;;1883498;75;21052;-81
2022/03/05 10:52:28;;;;;;;10.40;7.85;;;8.30;94.20;;;;;;1902083;75;21114;-79
2022/03/05 10:55:22;;;;;;;10.95;7.62;;;8.50;94.60;;;;;;1873133;75;21051;-80
2022/03/05 10:58:16;;;;;;;11.08;7.60;;;8.60;92.20;;;;;;1875435;75;21343;-80
2022/03/05 11:01:07;;;;;;;10.43;7.60;;;8.70;91.40;;;;;;1872951;76;21095;-80
2022/03/05 11:04:00;;;;;;;9.20;7.15;;;8.70;90.50;;;;;;1890640;75;21108;-80
2022/03/05 11:06:52;;;;;;;9.00;7.20;;;8.70;89.70;;;;;;1896131;73;21087;-79
2022/03/05 11:09:44;;;;;;;11.53;7.37;;;8.70;90.20;;;;;;1873307;75;21383;-81
2022/03/05 11:12:38;;;;;;;10.13;7.78;;;8.80;89.50;;;;;;1877845;75;21120;-81
2022/03/05 11:15:31;;;;;;;9.58;6.95;;;9.00;87.70;;;;;;1895401;75;21063;-80
2022/03/05 11:18:23;;;;;;;9.45;6.95;;;9.10;87.70;;;;;;1897274;75;21060;-80
2022/03/05 11:21:16;;;;;;;9.15;7.12;;;9.10;86.50;;;;;;1892614;75;21221;-80
2022/03/05 11:24:11;;;;;;;12.63;7.08;;;9.00;85.00;;;;;;1884328;75;21133;-81
2022/03/05 11:27:04;;;;;;;11.00;7.53;;;9.00;82.30;;;;;;1912958;73;21067;-79
2022/03/05 11:29:58;;;;;;;10.10;6.83;;;9.10;82.10;;;;;;1872980;76;21051;-79
2022/03/05 11:32:49;;;;;;;10.00;7.17;;;9.30;79.30;;;;;;1872812;75;21063;-80
2022/03/05 11:35:43;;;;;;;9.60;7.55;;;9.40;79.10;;;;;;1898063;73;21145;-80
2022/03/05 11:38:36;;;;;;;10.90;7.67;;;9.60;80.70;;;;;;1894357;75;21288;-79
2022/03/05 11:41:30;;;;;;;14.73;7.55;;;9.90;79.60;;;;;;1895365;75;21089;-81
2022/03/05 11:44:23;;;;;;;10.38;7.35;;;9.80;81.40;;;;;;1890914;75;21118;-81
2022/03/05 11:47:37;;;;;;;9.18;7.50;;;10.00;79.40;;;;;;1883739;75;21117;-80
2022/03/05 11:50:30;;;;;;;10.68;7.80;;;10.10;75.90;;;;;;1885782;75;21130;-81
2022/03/05 11:53:21;;;;;;;9.18;7.03;;;10.10;77.70;;;;;;1881454;75;21486;-81
2022/03/05 11:56:26;;;;;;;11.88;7.75;;;10.10;74.80;;;;;;1894202;75;21099;-80
2022/03/05 12:02:32;;;;;;;9.78;7.20;;;10.20;76.50;;;;;;1959772;72;22219;-81
2022/03/05 12:08:53;;;;;;;8.93;6.30;;;10.30;75.10;;;;;;1934227;72;22151;-81
2022/03/05 12:12:04;;;;;;;9.20;6.78;;;10.40;69.00;;;;;;1916800;75;21089;-80
2022/03/05 12:15:28;;;;;;;11.33;7.60;;;10.60;68.90;;;;;;1902268;75;21130;-80
2022/03/05 12:18:20;;;;;;;9.80;7.83;;;10.60;68.50;;;;;;1884674;76;21126;-79
2022/03/05 12:21:12;;;;;;;11.08;8.10;;;10.70;71.20;;;;;;1896140;75;21532;-79
2022/03/05 12:24:07;;;;;;;11.33;8.00;;;10.70;72.80;;;;;;1894944;75;21177;-80
2022/03/05 12:27:04;;;;;;;11.00;7.47;;;10.70;72.20;;;;;;1915902;74;21062;-79
2022/03/05 12:29:56;;;;;;;8.48;6.95;;;10.80;72.10;;;;;;1913272;75;21220;-81
2022/03/05 12:32:48;;;;;;;10.85;7.35;;;10.70;66.20;;;;;;1899135;75;21158;-81
2022/03/05 12:35:42;;;;;;;11.78;7.25;;;10.80;65.40;;;;;;1911307;74;21127;-80
2022/03/05 12:38:33;;;;;;;9.45;7.12;;;10.80;68.50;;;;;;1911882;75;21054;-80
2022/03/05 12:41:26;;;;;;;8.65;6.50;;;10.80;64.30;;;;;;1899236;73;21095;-79
2022/03/05 12:44:38;;;;;;;10.18;7.50;;;10.90;62.80;;;;;;1893009;74;21055;-79
2022/03/05 12:47:42;;;;;;;9.20;7.75;;;10.90;62.70;;;;;;1886379;76;21203;-80
2022/03/05 12:50:36;;;;;;;9.85;7.37;;;11.10;64.20;;;;;;1905348;74;21139;-80
2022/03/05 12:53:31;;;;;;;10.95;8.10;;;11.20;65.30;;;;;;1916046;75;21145;-79
2022/03/05 12:56:27;;;;;;;14.73;6.65;;;11.20;64.60;;;;;;1913826;74;21089;-81
2022/03/05 12:59:23;;;;;;;10.28;6.92;;;11.10;61.00;;;;;;1899620;74;21163;-79
2022/03/05 13:02:18;;;;;;;9.25;6.95;;;11.10;59.40;;;;;;1903831;74;21188;-80
2022/03/05 13:05:17;;;;;;;10.20;6.87;;;11.20;59.60;;;;;;1908208;75;21191;-79
2022/03/05 13:08:13;;;;;;;9.58;7.08;;;11.40;59.90;;;;;;1910124;75;21660;-79
2022/03/05 13:11:09;;;;;;;8.75;6.85;;;11.40;61.50;;;;;;1904195;75;21091;-80
2022/03/05 13:14:01;;;;;;;9.25;6.70;;;11.40;62.70;;;;;;1894304;75;21069;-79
2022/03/05 13:16:55;;;;;;;9.65;6.53;;;11.40;57.10;;;;;;1888321;75;21056;-81
2022/03/05 13:20:00;;;;;;;8.85;6.15;;;11.20;55.90;;;;;;1888993;75;21123;-80
2022/03/05 13:25:44;;;;;;;13.60;6.50;;;11.30;56.40;;;;;;1955543;72;22142;-80
2022/03/05 13:28:58;;;;;;;8.93;6.20;;;11.40;55.60;;;;;;1911239;73;21063;-80
2022/03/05 13:32:06;;;;;;;10.00;6.33;;;11.50;55.10;;;;;;1882872;75;21920;-79
2022/03/05 13:35:08;;;;;;;8.00;6.28;;;11.50;54.10;;;;;;1883307;75;21549;-80
2022/03/05 13:38:07;;;;;;;8.73;6.05;;;11.50;53.30;;;;;;1917188;75;21047;-79
2022/03/05 13:40:59;;;;;;;10.40;6.20;;;11.40;52.00;;;;;;1884102;75;21065;-79
2022/03/05 13:43:50;;;;;;;8.50;6.17;;;11.40;52.80;;;;;;1912943;75;21056;-79
2022/03/05 13:46:42;;;;;;;8.00;6.10;;;11.60;51.60;;;;;;1884145;75;21069;-79
2022/03/05 13:49:34;;;;;;;11.85;6.50;;;11.60;51.60;;;;;;1889287;75;21126;-79
2022/03/05 13:52:25;;;;;;;9.30;6.55;;;11.60;51.60;;;;;;1916266;75;21142;-79
2022/03/05 13:55:20;;;;;;;7.90;5.92;;;11.60;52.00;;;;;;1904965;75;21047;-79
2022/03/05 13:58:22;;;;;;;7.92;6.08;;;11.80;51.90;;;;;;1915579;75;21089;-79
2022/03/05 14:01:21;;;;;;;8.88;6.00;;;11.80;51.30;;;;;;1922788;73;21153;-80
2022/03/05 14:04:15;;;;;;;10.53;6.33;;;12.00;51.40;;;;;;1920786;73;21058;-79
2022/03/05 14:07:06;;;;;;;10.48;6.40;;;11.90;50.90;;;;;;1908743;75;21070;-78
2022/03/05 14:09:59;;;;;;;9.53;6.53;;;11.90;52.30;;;;;;1901567;75;21054;-79
2022/03/05 14:12:52;;;;;;;8.55;6.75;;;11.90;51.50;;;;;;1913943;75;21100;-79
2022/03/05 14:15:46;;;;;;;10.08;6.30;;;12.00;51.20;;;;;;1908379;75;21099;-79
2022/03/05 14:18:46;;;;;;;9.73;6.62;;;11.90;51.70;;;;;;1911137;75;21090;-81
2022/03/05 14:21:38;;;;;;;9.10;7.17;;;12.00;51.60;;;;;;1908763;75;21115;-80
2022/03/05 14:27:16;;;;;;;11.78;6.72;;;12.00;52.60;;;;;;1962938;72;22309;-80
2022/03/05 14:30:34;;;;;;;8.67;7.00;;;12.00;52.00;;;;;;1922128;73;21355;-80
2022/03/05 14:33:26;;;;;;;9.10;7.08;;;12.30;51.50;;;;;;1881185;74;21058;-79
2022/03/05 14:36:18;;;;;;;9.78;6.65;;;12.40;51.40;;;;;;1924865;73;21169;-79
2022/03/05 14:39:11;;;;;;;8.40;6.45;;;13.40;50.50;;;;;;1930630;73;21090;-79
2022/03/05 14:42:07;;;;;;;10.23;7.15;;;13.90;49.30;;;;;;1916926;75;21240;-80
2022/03/05 14:45:01;;;;;;;11.20;7.12;;;14.10;48.80;;;;;;1916767;74;21185;-80
2022/03/05 14:47:53;;;;;;;9.28;6.87;;;14.20;49.20;;;;;;1917162;75;21112;-79
2022/03/05 14:50:45;;;;;;;10.82;7.10;;;14.40;48.60;;;;;;1918508;73;21160;-79
2022/03/05 14:53:37;;;;;;;10.32;7.22;;;14.90;47.90;;;;;;1932461;73;21121;-78
2022/03/05 14:56:28;;;;;;;10.55;8.03;;;14.90;47.60;;;;;;1919070;73;21097;-80
2022/03/05 14:59:20;;;;;;;9.90;8.00;;;14.60;48.40;;;;;;1918908;73;21078;-78
2022/03/05 15:02:12;;;;;;;11.22;8.50;;;13.90;48.50;;;;;;1919784;73;21128;-79
2022/03/05 15:05:06;;;;;;;11.15;8.20;;;13.10;49.90;;;;;;1931509;73;21064;-78
2022/03/05 15:07:57;;;;;;;9.50;7.80;;;12.80;50.60;;;;;;1932514;73;21129;-78
2022/03/05 15:10:52;;;;;;;11.83;8.68;;;12.60;50.60;;;;;;1928423;73;21133;-79
2022/03/05 15:13:43;;;;;;;10.90;8.08;;;12.40;51.40;;;;;;1923359;73;21198;-78
2022/03/05 15:19:15;;;;;;;12.03;8.48;;;12.30;52.40;;;;;;1955517;72;22130;-79
2022/03/05 15:22:25;;;;;;;11.53;8.45;;;12.20;52.70;;;;;;1905564;75;21205;-78
2022/03/05 15:25:18;;;;;;;10.90;8.65;;;12.10;53.10;;;;;;1894946;75;21102;-78
2022/03/05 15:28:09;;;;;;;11.48;8.23;;;12.30;53.50;;;;;;1915891;73;21190;-85
2022/03/05 15:31:04;;;;;;;12.33;8.95;;;12.40;53.30;;;;;;1907393;73;21159;-85
2022/03/05 15:33:56;;;;;;;13.40;9.40;;;12.40;53.50;;;;;;1905722;75;21098;-83
2022/03/05 15:36:48;;;;;;;10.98;8.80;;;12.20;53.10;;;;;;1884227;76;21114;-83
2022/03/05 15:39:39;;;;;;;11.05;8.58;;;12.10;53.80;;;;;;1889082;75;21059;-84
2022/03/05 15:42:31;;;;;;;11.55;9.30;;;13.00;53.90;;;;;;1891406;75;21086;-84
2022/03/05 15:45:23;;;;;;;12.18;8.45;;;13.80;52.10;;;;;;1906864;75;21776;-84
2022/03/05 15:48:14;;;;;;;12.85;8.68;;;14.20;51.40;;;;;;1904791;75;21153;-85
2022/03/05 15:53:49;;;;;;;11.15;8.60;;;15.10;50.30;;;;;;1947380;72;22692;-84
2022/03/05 15:56:58;;;;;;;12.30;8.43;;;14.80;50.50;;;;;;1901911;73;21176;-82
2022/03/05 15:59:50;;;;;;;12.07;8.85;;;15.20;49.80;;;;;;1918505;73;21044;-83
2022/03/05 16:02:41;;;;;;;10.48;8.33;;;15.40;49.60;;;;;;1907103;73;21175;-82
2022/03/05 16:08:12;;;;;;;11.20;8.35;;;15.30;49.60;;;;;;1940823;72;22172;-83
2022/03/05 16:14:04;;;;;;;11.75;9.38;;;15.10;49.40;;;;;;1933932;72;22265;-83
2022/03/05 16:17:14;;;;;;;11.73;8.90;;;15.20;49.90;;;;;;1893108;75;21631;-81
2022/03/05 16:20:08;;;;;;;10.50;8.25;;;14.40;49.50;;;;;;1918090;74;21042;-81
2022/03/05 16:23:00;;;;;;;11.57;8.65;;;14.10;50.20;;;;;;1925266;74;21314;-84
2022/03/05 16:25:52;;;;;;;11.50;8.48;;;13.50;50.50;;;;;;1927252;74;21109;-81
2022/03/05 16:28:49;;;;;;;10.93;8.13;;;13.60;50.80;;;;;;1889393;74;21095;-81
2022/03/05 16:31:40;;;;;;;12.60;7.87;;;13.20;51.30;;;;;;1901125;74;21102;-76
2022/03/05 16:34:32;;;;;;;10.70;8.38;;;12.70;51.90;;;;;;1906995;74;21063;-77
2022/03/05 16:37:23;;;;;;;11.63;8.65;;;12.40;52.10;;;;;;1913222;75;21109;-75
2022/03/05 16:40:19;;;;;;;11.70;8.28;;;12.10;53.00;;;;;;1894080;75;21597;-76
2022/03/05 16:45:52;;;;;;;13.15;8.50;;;11.40;54.40;;;;;;1971882;72;22265;-77
2022/03/05 16:49:05;;;;;;;11.80;7.67;;;11.30;54.60;;;;;;1905022;75;21474;-77
2022/03/05 16:54:36;;;;;;;15.70;9.20;;;10.90;55.70;;;;;;1955282;72;22108;-77
2022/03/05 16:57:46;;;;;;;12.13;8.45;;;10.90;55.80;;;;;;1911478;73;21915;-76
2022/03/05 17:00:38;;;;;;;13.53;8.53;;;10.80;56.50;;;;;;1890312;75;21112;-76
2022/03/05 17:06:50;;;;;;;12.47;8.48;;;10.60;57.00;;;;;;1886467;75;21040;-76
2022/03/05 17:09:44;;;;;;;12.43;9.40;;;10.60;57.10;;;;;;1880383;75;21172;-84
2022/03/05 17:15:23;;;;;;;13.75;9.03;;;10.50;60.00;;;;;;1931479;72;22270;-87
2022/03/05 17:18:33;;;;;;;11.70;8.80;;;10.50;58.80;;;;;;1905426;74;21227;-85
2022/03/05 17:21:24;;;;;;;10.45;8.43;;;10.40;59.40;;;;;;1905031;74;21157;-79
2022/03/05 17:26:55;;;;;;;11.53;8.75;;;10.20;59.80;;;;;;1943562;72;22295;-84
2022/03/05 17:30:08;;;;;;;11.73;8.35;;;10.10;59.90;;;;;;1893978;75;21035;-80
2022/03/05 17:33:01;;;;;;;12.40;8.38;;;10.00;60.30;;;;;;1894602;73;21536;-81
2022/03/05 17:38:32;;;;;;;14.03;8.48;;;9.90;62.10;;;;;;1941351;72;22311;-82
2022/03/05 17:44:23;;;;;;;10.00;7.78;;;9.90;61.30;;;;;;1945644;72;22114;-81
2022/03/05 17:47:33;;;;;;;11.12;8.05;;;9.90;60.10;;;;;;1895763;75;21047;-81
2022/03/05 17:50:26;;;;;;;10.48;7.80;;;9.90;61.40;;;;;;1838954;78;21135;-81
2022/03/05 17:53:19;;;;;;;11.93;7.67;;;9.90;61.00;;;;;;1895833;75;21675;-80
2022/03/05 17:56:10;;;;;;;9.13;6.90;;;9.90;59.80;;;;;;1875941;75;21180;-81
2022/03/05 17:59:05;;;;;;;9.55;7.15;;;9.80;59.30;;;;;;1897853;75;21078;-81
2022/03/05 18:01:58;;;;;;;13.05;7.17;;;9.70;58.70;;;;;;1878281;74;21180;-80
2022/03/05 18:04:54;;;;;;;9.68;7.60;;;9.60;59.00;;;;;;1862935;76;21066;-80
2022/03/05 18:10:33;;;;;;;8.40;6.35;;;9.40;59.00;;;;;;1952389;72;22612;-81
2022/03/05 18:13:42;;;;;;;9.85;7.53;;;9.50;59.10;;;;;;1939852;73;21131;-80